Strona główna
METAR-TAF:

METAR-TAF

Lotnisko :

Port lotniczy Ateny

Ateny, Grecja

Szerokość geograficzna: 37-56N, Długość geograficzna: 023-56E, wysokość: 94 m

Aktualna obserwacja pogody

Raport powstał 40 minut temu, godzina 11:20 UTC
Wiatr 15 kt od północno-północny wschód
Temperatura 22°C
Wilgotność 57%
Ciśnienie 1020 hPa
Widzialność 10 km lub więcej
Rozproszone chmury na wysokości 3000 ft

METAR: LGAV 161120Z 03015KT 9999 SCT030 22/13 Q1020 NOSIG

czas: 15:00 (12:00 UTC)

Prognoza

Raport powstał 1 godzina i 0 minut temu, godzina 11:00 UTC
Prognoza ważna od 16 godzina 12 UTC do 17 godzina 12 UTC
Wiatr 15 kt od północno-północny wschód
Widzialność 10 km lub więcej
Rozproszone chmury na wysokości 2500 ft
Stopniowe zmiany
od 16 godzina 18 UTC do 16 godzina 20 UTC
Wiatr 10 kt od północno-północny zachód
Stopniowe zmiany
od 17 godzina 06 UTC do 17 godzina 08 UTC
Wiatr 15 kt od północno-północny wschód

TAF: LGAV 161100Z 1612/1712 02015KT 9999 SCT025 BECMG 1618/1620 34010KT BECMG 1706/1708 02015KT

Obserwacja i prognoza pogody dla ponad 4000 lotnisk (raport METAR i TAF).

Dostępne stacje oznaczono żółtymi i czerwonymi punktami na mapie.

Najedź kursorem aby zobaczyć nazwę stacji.

Kliknij aby zobaczyć obserwacje i prognozy pogody.

Aby zmienić mapę: kliknij na zielony przycisk z czarnym krzyżykiem, aby powiększyć; na zielony przycisk z myślnikiem, aby pomniejszyć; na zielone strzałki, aby przejść do map sąsiednich.


METAR-TAF: